Tucana J — V2CX7 — position and weather

sailwx.info

Track history (hours):
 
Tides and Currents Weather Stations Pressure Air Temp Water Temp Dewpoint Dewpoint Depression Visibility Wind Speed Wind Dir Waves Ship Positions

Tucana J

Last reported at 2018-Jun-17 02:17 UTC. Time now 2018-Jun-19 06:45 UTC.
Position N 27°52' W 079°49'.

Length 140 m; draft 5.3 m.

Type: Cargo ship. MMSI: 305140000.

Date/timePositionNaut miles runAvg speedWind from/ knotsBaromVisibWave heightAir tempDewpointWater temp
2018-Jun-17 02:17N 27°52' W 079°49'519.7
2018-Jun-17 02:00N 27°47' W 079°50'1819.4
2018-Jun-17 01:05N 27°29' W 079°52'2119.7
2018-Jun-17 00:03N 27°08' W 079°54'120.1
2018-Jun-17 00:00N 27°08' W 079°54'1020.0
2018-Jun-16 23:30N 26°58' W 079°55'1020.0
2018-Jun-16 23:00N 26°48' W 079°56'1020.0
2018-Jun-16 22:30N 26°38' W 079°57'1019.1
2018-Jun-16 21:59N 26°28' W 079°57'1019.7
2018-Jun-16 21:30N 26°18' W 079°58'1019.9
2018-Jun-16 21:00N 26°09' W 080°00'713.2
2018-Jun-16 20:30N 26°06' W 080°07'2 3.1
2018-Jun-16 19:59N 26°04' W 080°07'0 0.0
2018-Jun-16 19:29N 26°04' W 080°07'0 0.0
2018-Jun-16 18:56N 26°04' W 080°07'0 0.0
2018-Jun-16 18:20N 26°04' W 080°07'0 0.0
2018-Jun-16 17:58N 26°04' W 080°07'0 0.0
2018-Jun-16 17:28N 26°04' W 080°07'0 0.0
2018-Jun-16 16:55N 26°04' W 080°07'0 0.0
2018-Jun-16 16:25N 26°04' W 080°07'0 0.0
2018-Jun-16 15:55N 26°04' W 080°07'0 0.0
2018-Jun-16 15:30N 26°04' W 080°07'0 0.0
2018-Jun-16 15:00N 26°04' W 080°07'0 0.0
2018-Jun-16 14:27N 26°04' W 080°07'0 0.0
2018-Jun-16 13:55N 26°04' W 080°07'0 0.0
2018-Jun-16 13:29N 26°04' W 080°07'0 0.0
2018-Jun-16 12:59N 26°04' W 080°07'0 0.0
2018-Jun-16 12:29N 26°04' W 080°07'0 0.0
2018-Jun-16 12:00N 26°04' W 080°07'1 1.7
2018-Jun-16 11:30N 26°05' W 080°07'4 7.5
2018-Jun-16 11:00N 26°05' W 080°03'611.2
2018-Jun-16 10:30N 26°05' W 079°57'511.0
2018-Jun-16 10:00N 26°05' W 079°50'510.2
2018-Jun-16 09:30N 26°00' W 079°47'612.7
2018-Jun-16 09:00N 25°54' W 079°45'612.3
2018-Jun-16 08:30N 25°49' W 079°43'612.0
2018-Jun-16 08:00N 25°43' W 079°40'611.9
2018-Jun-16 07:30N 25°37' W 079°40'611.3
2018-Jun-16 07:00N 25°31' W 079°40'613.0
2018-Jun-16 06:30N 25°25' W 079°39'1018.3
2018-Jun-16 05:57N 25°15' W 079°40'9117.2
2018-Jun-16 00:39N 24°07' W 080°46'  
2018-Jun-10 04:58N 25°29' W 079°40'612.7
2018-Jun-10 04:30N 25°35' W 079°40'4 8.1
2018-Jun-10 04:01N 25°39' W 079°40'2 4.9
2018-Jun-10 03:31N 25°42' W 079°41'3 6.1
2018-Jun-10 03:00N 25°44' W 079°43'612.9
2018-Jun-10 02:30N 25°49' W 079°48'612.9
2018-Jun-10 02:01N 25°53' W 079°53'612.8
2018-Jun-10 01:31N 25°58' W 079°57'713.2
2018-Jun-10 01:00N 26°03' W 080°02'5 9.8
2018-Jun-10 00:31N 26°06' W 080°07'2 3.1
2018-Jun-10 00:00N 26°04' W 080°07'0 0.0
2018-Jun-09 23:30N 26°04' W 080°07'0 0.0
2018-Jun-09 22:57N 26°04' W 080°07'0 0.0
2018-Jun-09 22:30N 26°04' W 080°07'0 0.0
2018-Jun-09 21:59N 26°04' W 080°07'0 0.0
2018-Jun-09 21:29N 26°04' W 080°07'0 0.0
2018-Jun-09 20:53N 26°04' W 080°07'0 0.0
2018-Jun-09 20:23N 26°04' W 080°07'0 0.0
2018-Jun-09 19:58N 26°04' W 080°07'0 0.0
2018-Jun-09 19:28N 26°04' W 080°07'0 0.0
2018-Jun-09 18:55N 26°04' W 080°07'0 0.0
2018-Jun-09 18:22N 26°04' W 080°07'0 0.0
2018-Jun-09 17:49N 26°04' W 080°07'0 0.0
2018-Jun-09 17:30N 26°04' W 080°07'0 0.1
2018-Jun-09 17:00N 26°04' W 080°07'0 0.0
2018-Jun-09 16:30N 26°04' W 080°07'0 0.0
2018-Jun-09 16:00N 26°04' W 080°07'0 0.0
2018-Jun-09 15:30N 26°04' W 080°07'0 0.0
2018-Jun-09 14:29N 26°04' W 080°07'0 0.0
2018-Jun-09 13:50N 26°04' W 080°07'0 0.0
2018-Jun-09 13:26N 26°04' W 080°07'0 0.0
2018-Jun-09 12:58N 26°04' W 080°07'0 0.0
2018-Jun-09 12:28N 26°04' W 080°07'0 0.0
2018-Jun-09 11:58N 26°04' W 080°07'0 0.0
2018-Jun-09 11:28N 26°04' W 080°07'0 0.0
2018-Jun-09 10:58N 26°04' W 080°07'0 0.0
2018-Jun-09 10:30N 26°04' W 080°07'0 0.0
2018-Jun-09 10:00N 26°04' W 080°07'0 0.0
2018-Jun-09 09:24N 26°04' W 080°07'0 0.0
2018-Jun-09 09:00N 26°04' W 080°07'0 0.0
2018-Jun-09 08:29N 26°04' W 080°07'0 0.0
2018-Jun-09 07:59N 26°04' W 080°07'0 0.0
2018-Jun-09 07:30N 26°04' W 080°07'0 0.2
2018-Jun-09 07:00N 26°04' W 080°07'2 3.4
2018-Jun-09 06:30N 26°06' W 080°06'2 3.4
2018-Jun-09 06:00N 26°06' W 080°04'4 9.0
2018-Jun-09 05:30N 26°07' W 079°59'2 3.5
2018-Jun-09 05:00N 26°05' W 079°58'1 1.3
2018-Jun-09 04:30N 26°06' W 079°58'2 3.2
2018-Jun-09 04:00N 26°08' W 079°58'2 3.5
2018-Jun-09 03:30N 26°09' W 079°58'2 3.5
2018-Jun-09 03:00N 26°11' W 079°58'2 3.6
2018-Jun-09 02:30N 26°13' W 079°58'2 3.6
2018-Jun-09 02:00N 26°15' W 079°59'2 3.8
2018-Jun-09 01:30N 26°17' W 079°59'2 4.5
2018-Jun-09 01:00N 26°19' W 079°59'4 8.1
2018-Jun-09 00:30N 26°23' W 079°59'610.8
2018-Jun-08 23:59N 26°28' W 079°59'612.4
2018-Jun-08 23:30N 26°34' W 079°58'1612.4
2018-Jun-08 22:13N 26°50' W 079°57'2311.8
2018-Jun-08 20:14N 27°14' W 079°56'  
Track history (hours):
 
Tides and Currents Weather Stations Pressure Air Temp Water Temp Dewpoint Dewpoint Depression Visibility Wind Speed Wind Dir Waves Ship Positions

Tucana J

Last reported at 2018-Jun-17 02:17 UTC. Time now 2018-Jun-19 06:45 UTC.
Position N 27°52' W 079°49'.

Length 140 m; draft 5.3 m.

Type: Cargo ship. MMSI: 305140000.

Date/timePositionNaut miles runAvg speedWind from/ knotsBaromVisibWave heightAir tempDewpointWater temp
2018-Jun-17 02:17N 27°52' W 079°49'519.7
2018-Jun-17 02:00N 27°47' W 079°50'1819.4
2018-Jun-17 01:05N 27°29' W 079°52'2119.7
2018-Jun-17 00:03N 27°08' W 079°54'120.1
2018-Jun-17 00:00N 27°08' W 079°54'1020.0
2018-Jun-16 23:30N 26°58' W 079°55'1020.0
2018-Jun-16 23:00N 26°48' W 079°56'1020.0
2018-Jun-16 22:30N 26°38' W 079°57'1019.1
2018-Jun-16 21:59N 26°28' W 079°57'1019.7
2018-Jun-16 21:30N 26°18' W 079°58'1019.9
2018-Jun-16 21:00N 26°09' W 080°00'713.2
2018-Jun-16 20:30N 26°06' W 080°07'2 3.1
2018-Jun-16 19:59N 26°04' W 080°07'0 0.0
2018-Jun-16 19:29N 26°04' W 080°07'0 0.0
2018-Jun-16 18:56N 26°04' W 080°07'0 0.0
2018-Jun-16 18:20N 26°04' W 080°07'0 0.0
2018-Jun-16 17:58N 26°04' W 080°07'0 0.0
2018-Jun-16 17:28N 26°04' W 080°07'0 0.0
2018-Jun-16 16:55N 26°04' W 080°07'0 0.0
2018-Jun-16 16:25N 26°04' W 080°07'0 0.0
2018-Jun-16 15:55N 26°04' W 080°07'0 0.0
2018-Jun-16 15:30N 26°04' W 080°07'0 0.0
2018-Jun-16 15:00N 26°04' W 080°07'0 0.0
2018-Jun-16 14:27N 26°04' W 080°07'0 0.0
2018-Jun-16 13:55N 26°04' W 080°07'0 0.0
2018-Jun-16 13:29N 26°04' W 080°07'0 0.0
2018-Jun-16 12:59N 26°04' W 080°07'0 0.0
2018-Jun-16 12:29N 26°04' W 080°07'0 0.0
2018-Jun-16 12:00N 26°04' W 080°07'1 1.7
2018-Jun-16 11:30N 26°05' W 080°07'4 7.5
2018-Jun-16 11:00N 26°05' W 080°03'611.2
2018-Jun-16 10:30N 26°05' W 079°57'511.0
2018-Jun-16 10:00N 26°05' W 079°50'510.2
2018-Jun-16 09:30N 26°00' W 079°47'612.7
2018-Jun-16 09:00N 25°54' W 079°45'612.3
2018-Jun-16 08:30N 25°49' W 079°43'612.0
2018-Jun-16 08:00N 25°43' W 079°40'611.9
2018-Jun-16 07:30N 25°37' W 079°40'611.3
2018-Jun-16 07:00N 25°31' W 079°40'613.0
2018-Jun-16 06:30N 25°25' W 079°39'1018.3
2018-Jun-16 05:57N 25°15' W 079°40'9117.2
2018-Jun-16 00:39N 24°07' W 080°46'  
2018-Jun-10 04:58N 25°29' W 079°40'612.7
2018-Jun-10 04:30N 25°35' W 079°40'4 8.1
2018-Jun-10 04:01N 25°39' W 079°40'2 4.9
2018-Jun-10 03:31N 25°42' W 079°41'3 6.1
2018-Jun-10 03:00N 25°44' W 079°43'612.9
2018-Jun-10 02:30N 25°49' W 079°48'612.9
2018-Jun-10 02:01N 25°53' W 079°53'612.8
2018-Jun-10 01:31N 25°58' W 079°57'713.2
2018-Jun-10 01:00N 26°03' W 080°02'5 9.8
2018-Jun-10 00:31N 26°06' W 080°07'2 3.1
2018-Jun-10 00:00N 26°04' W 080°07'0 0.0
2018-Jun-09 23:30N 26°04' W 080°07'0 0.0
2018-Jun-09 22:57N 26°04' W 080°07'0 0.0
2018-Jun-09 22:30N 26°04' W 080°07'0 0.0
2018-Jun-09 21:59N 26°04' W 080°07'0 0.0
2018-Jun-09 21:29N 26°04' W 080°07'0 0.0
2018-Jun-09 20:53N 26°04' W 080°07'0 0.0
2018-Jun-09 20:23N 26°04' W 080°07'0 0.0
2018-Jun-09 19:58N 26°04' W 080°07'0 0.0
2018-Jun-09 19:28N 26°04' W 080°07'0 0.0
2018-Jun-09 18:55N 26°04' W 080°07'0 0.0
2018-Jun-09 18:22N 26°04' W 080°07'0 0.0
2018-Jun-09 17:49N 26°04' W 080°07'0 0.0
2018-Jun-09 17:30N 26°04' W 080°07'0 0.1
2018-Jun-09 17:00N 26°04' W 080°07'0 0.0
2018-Jun-09 16:30N 26°04' W 080°07'0 0.0
2018-Jun-09 16:00N 26°04' W 080°07'0 0.0
2018-Jun-09 15:30N 26°04' W 080°07'0 0.0
2018-Jun-09 14:29N 26°04' W 080°07'0 0.0
2018-Jun-09 13:50N 26°04' W 080°07'0 0.0
2018-Jun-09 13:26N 26°04' W 080°07'0 0.0
2018-Jun-09 12:58N 26°04' W 080°07'0 0.0
2018-Jun-09 12:28N 26°04' W 080°07'0 0.0
2018-Jun-09 11:58N 26°04' W 080°07'0 0.0
2018-Jun-09 11:28N 26°04' W 080°07'0 0.0
2018-Jun-09 10:58N 26°04' W 080°07'0 0.0
2018-Jun-09 10:30N 26°04' W 080°07'0 0.0
2018-Jun-09 10:00N 26°04' W 080°07'0 0.0
2018-Jun-09 09:24N 26°04' W 080°07'0 0.0
2018-Jun-09 09:00N 26°04' W 080°07'0 0.0
2018-Jun-09 08:29N 26°04' W 080°07'0 0.0
2018-Jun-09 07:59N 26°04' W 080°07'0 0.0
2018-Jun-09 07:30N 26°04' W 080°07'0 0.2
2018-Jun-09 07:00N 26°04' W 080°07'2 3.4
2018-Jun-09 06:30N 26°06' W 080°06'2 3.4
2018-Jun-09 06:00N 26°06' W 080°04'4 9.0
2018-Jun-09 05:30N 26°07' W 079°59'2 3.5
2018-Jun-09 05:00N 26°05' W 079°58'1 1.3
2018-Jun-09 04:30N 26°06' W 079°58'2 3.2
2018-Jun-09 04:00N 26°08' W 079°58'2 3.5
2018-Jun-09 03:30N 26°09' W 079°58'2 3.5
2018-Jun-09 03:00N 26°11' W 079°58'2 3.6
2018-Jun-09 02:30N 26°13' W 079°58'2 3.6
2018-Jun-09 02:00N 26°15' W 079°59'2 3.8
2018-Jun-09 01:30N 26°17' W 079°59'2 4.5
2018-Jun-09 01:00N 26°19' W 079°59'4 8.1
2018-Jun-09 00:30N 26°23' W 079°59'610.8
2018-Jun-08 23:59N 26°28' W 079°59'612.4
2018-Jun-08 23:30N 26°34' W 079°58'1612.4
2018-Jun-08 22:13N 26°50' W 079°57'2311.8
2018-Jun-08 20:14N 27°14' W 079°56'  

Dump ship's entire track history